createdAt,value
2017-01-12T00:00:58.718Z,0
2017-01-12T00:01:58.718Z,0
2017-01-12T00:02:58.718Z,0
2017-01-12T00:03:58.297Z,0
2017-01-12T00:04:59.109Z,0
2017-01-12T00:05:59.105Z,0
2017-01-12T00:06:59.097Z,0
2017-01-12T00:07:59.109Z,0
2017-01-12T00:08:58.697Z,0
2017-01-12T00:09:58.701Z,0
2017-01-12T00:10:58.689Z,0
2017-01-12T00:11:58.677Z,0
2017-01-12T00:12:58.261Z,0
2017-01-12T00:13:58.677Z,0
2017-01-12T00:14:58.672Z,0
2017-01-12T00:15:58.668Z,0
2017-01-12T00:16:58.244Z,0
2017-01-12T00:17:59.072Z,0
2017-01-12T00:18:58.247Z,0
2017-01-12T00:19:58.655Z,0
2017-01-12T00:20:58.651Z,0
2017-01-12T00:21:59.052Z,0
2017-01-12T00:22:59.051Z,0
2017-01-12T00:23:59.047Z,0
2017-01-12T00:24:58.635Z,0
2017-01-12T00:25:58.630Z,0
2017-01-12T00:26:58.630Z,0
2017-01-12T00:27:59.038Z,0
2017-01-12T00:28:58.218Z,0
2017-01-12T00:29:58.622Z,0
2017-01-12T00:30:58.614Z,0
2017-01-12T00:31:59.022Z,0
2017-01-12T00:32:58.606Z,0
2017-01-12T00:33:58.189Z,0
2017-01-12T00:34:58.601Z,0
2017-01-12T00:35:59.013Z,0
2017-01-12T00:36:58.181Z,0
2017-01-12T00:37:58.173Z,0
2017-01-12T00:38:58.577Z,0
2017-01-12T00:39:58.993Z,0
2017-01-12T00:40:58.577Z,0
2017-01-12T00:41:58.989Z,0
2017-01-12T00:42:58.565Z,0
2017-01-12T00:43:58.157Z,0
2017-01-12T00:44:58.153Z,0
2017-01-12T00:45:58.556Z,0
2017-01-12T00:46:58.968Z,0
2017-01-12T00:47:58.141Z,0
2017-01-12T00:48:58.548Z,0
2017-01-12T00:49:58.964Z,0
2017-01-12T00:50:58.124Z,0
2017-01-12T00:51:58.540Z,0
2017-01-12T00:52:58.544Z,0
2017-01-12T00:53:58.532Z,0
2017-01-12T00:54:58.528Z,0
2017-01-12T00:55:58.528Z,0
2017-01-12T00:56:58.520Z,0
2017-01-12T00:57:58.528Z,0
2017-01-12T00:58:58.516Z,0
2017-01-12T00:59:58.924Z,0
2017-01-12T01:00:58.504Z,0
2017-01-12T01:01:58.504Z,0
2017-01-12T01:02:58.916Z,0
2017-01-12T01:03:58.912Z,0
2017-01-12T01:04:58.500Z,0
2017-01-12T01:05:58.488Z,0
2017-01-12T01:06:58.904Z,0
2017-01-12T01:07:58.896Z,0
2017-01-12T01:08:58.476Z,0
2017-01-12T01:09:58.068Z,0
2017-01-12T01:10:58.476Z,0
2017-01-12T01:11:58.481Z,0
2017-01-12T01:12:58.872Z,0
2017-01-12T01:13:58.884Z,0
2017-01-12T01:14:58.461Z,0
2017-01-12T01:15:58.457Z,0
2017-01-12T01:16:58.453Z,0
2017-01-12T01:17:58.452Z,0
2017-01-12T01:18:58.029Z,0
2017-01-12T01:19:58.449Z,0
2017-01-12T01:20:58.464Z,0
2017-01-12T01:21:58.457Z,0
2017-01-12T01:22:58.849Z,0
2017-01-12T01:23:58.433Z,0
2017-01-12T01:24:58.429Z,0
2017-01-12T01:25:58.433Z,0
2017-01-12T01:26:58.017Z,0
2017-01-12T01:27:57.629Z,0
2017-01-12T01:28:58.413Z,0
2017-01-12T01:29:58.005Z,0
2017-01-12T01:30:58.825Z,0
2017-01-12T01:31:58.410Z,0
2017-01-12T01:32:58.809Z,0
2017-01-12T01:33:58.405Z,0
2017-01-12T01:34:58.397Z,0
2017-01-12T01:35:57.988Z,0
2017-01-12T01:36:58.801Z,0
2017-01-12T01:37:58.397Z,0
2017-01-12T01:38:58.385Z,0
2017-01-12T01:39:58.785Z,0
2017-01-12T01:40:58.785Z,0
2017-01-12T01:41:57.961Z,0
2017-01-12T01:42:58.813Z,0
2017-01-12T01:43:58.362Z,0
2017-01-12T01:44:58.362Z,0
2017-01-12T01:45:58.766Z,0
2017-01-12T01:46:58.765Z,0
2017-01-12T01:47:58.357Z,0
2017-01-12T01:48:58.347Z,0
2017-01-12T01:49:58.762Z,0
2017-01-12T01:50:57.927Z,0
2017-01-12T01:51:57.931Z,0
2017-01-12T01:52:58.331Z,0
2017-01-12T01:53:57.927Z,0
2017-01-12T01:54:58.328Z,0
2017-01-12T01:55:58.360Z,0
2017-01-12T01:56:58.736Z,0
2017-01-12T01:57:58.320Z,0
2017-01-12T01:58:57.492Z,0
2017-01-12T01:59:58.316Z,0
2017-01-12T02:00:57.485Z,0
2017-01-12T02:01:57.484Z,0
2017-01-12T02:02:58.309Z,0
2017-01-12T02:03:58.317Z,0
2017-01-12T02:04:58.305Z,0
2017-01-12T02:05:58.293Z,0
2017-01-12T02:06:58.290Z,0
2017-01-12T02:07:57.878Z,0
2017-01-12T02:08:58.282Z,0
2017-01-12T02:09:57.880Z,0
2017-01-12T02:10:58.690Z,0
2017-01-12T02:11:58.278Z,0
2017-01-12T02:12:58.274Z,0
2017-01-12T02:13:58.263Z,0
2017-01-12T02:14:57.851Z,0
2017-01-12T02:15:57.851Z,0
2017-01-12T02:16:58.255Z,0
2017-01-12T02:17:57.435Z,0
2017-01-12T02:18:57.843Z,0
2017-01-12T02:19:58.279Z,0
2017-01-12T02:20:58.648Z,0
2017-01-12T02:21:58.255Z,0
2017-01-12T02:22:58.239Z,0
2017-01-12T02:23:57.824Z,0
2017-01-12T02:24:58.232Z,0
2017-01-12T02:25:58.479Z,0
2017-01-12T02:26:58.232Z,0
2017-01-12T02:27:57.808Z,0
2017-01-12T02:28:58.220Z,0
2017-01-12T02:29:58.225Z,0
2017-01-12T02:30:58.216Z,0
2017-01-12T02:31:58.625Z,0
2017-01-12T02:32:58.209Z,0
2017-01-12T02:33:58.617Z,0
2017-01-12T02:34:57.376Z,0
2017-01-12T02:35:57.813Z,0
2017-01-12T02:36:58.193Z,0
2017-01-12T02:37:58.589Z,0
2017-01-12T02:38:58.601Z,0
2017-01-12T02:39:58.189Z,0
2017-01-12T02:40:58.188Z,0
2017-01-12T02:41:58.166Z,0
2017-01-12T02:42:58.182Z,0
2017-01-12T02:43:57.753Z,0
2017-01-12T02:44:58.578Z,0
2017-01-12T02:45:58.582Z,0
2017-01-12T02:46:58.566Z,0
2017-01-12T02:47:58.574Z,0
2017-01-12T02:48:58.150Z,0
2017-01-12T02:49:58.566Z,0
2017-01-12T02:50:58.147Z,0
2017-01-12T02:51:58.174Z,0
2017-01-12T02:52:58.135Z,0
2017-01-12T02:53:58.142Z,0
2017-01-12T02:54:58.571Z,0
2017-01-12T02:55:57.727Z,0
2017-01-12T02:56:58.131Z,0
2017-01-12T02:57:58.131Z,0
2017-01-12T02:58:58.127Z,0
2017-01-12T02:59:58.112Z,0
2017-01-12T03:00:57.703Z,0
2017-01-12T03:01:58.100Z,0
2017-01-12T03:02:58.119Z,0
2017-01-12T03:03:58.104Z,0
2017-01-12T03:04:57.704Z,0
2017-01-12T03:05:58.516Z,0
2017-01-12T03:06:58.508Z,0
2017-01-12T03:07:58.088Z,0
2017-01-12T03:08:58.088Z,0
2017-01-12T03:09:57.684Z,0
2017-01-12T03:10:58.072Z,0
2017-01-12T03:11:58.493Z,0
2017-01-12T03:12:58.080Z,0
2017-01-12T03:13:58.068Z,0
2017-01-12T03:14:58.069Z,0
2017-01-12T03:15:57.660Z,0
2017-01-12T03:16:57.649Z,0
2017-01-12T03:17:58.065Z,0
2017-01-12T03:18:57.237Z,0
2017-01-12T03:19:58.050Z,0
2017-01-12T03:20:58.453Z,0
2017-01-12T03:21:58.033Z,0
2017-01-12T03:22:58.049Z,0
2017-01-12T03:23:57.629Z,0
2017-01-12T03:24:57.625Z,0
2017-01-12T03:25:58.037Z,0
2017-01-12T03:26:58.033Z,0
2017-01-12T03:27:58.031Z,0
2017-01-12T03:28:58.437Z,0
2017-01-12T03:29:58.018Z,0
2017-01-12T03:30:58.038Z,0
2017-01-12T03:31:58.414Z,0
2017-01-12T03:32:58.009Z,0
2017-01-12T03:33:58.010Z,0
2017-01-12T03:34:57.582Z,0
2017-01-12T03:35:57.590Z,0
2017-01-12T03:36:57.994Z,0
2017-01-12T03:37:57.990Z,0
2017-01-12T03:38:57.986Z,0
2017-01-12T03:39:58.391Z,0
2017-01-12T03:40:57.986Z,0
2017-01-12T03:41:57.563Z,0
2017-01-12T03:42:57.563Z,0
2017-01-12T03:43:57.154Z,0
2017-01-12T03:44:57.975Z,0
2017-01-12T03:45:57.583Z,0
2017-01-12T03:46:57.559Z,0
2017-01-12T03:47:58.375Z,0
2017-01-12T03:48:58.363Z,0
2017-01-12T03:49:58.366Z,0
2017-01-12T03:50:57.547Z,0
2017-01-12T03:51:57.943Z,0
2017-01-12T03:52:58.347Z,0
2017-01-12T03:53:58.343Z,0
2017-01-12T03:54:57.533Z,0
2017-01-12T03:55:58.343Z,0
2017-01-12T03:56:57.932Z,0
2017-01-12T03:57:57.923Z,0
2017-01-12T03:58:57.511Z,0
2017-01-12T03:59:57.524Z,0
2017-01-12T04:00:57.924Z,0
2017-01-12T04:01:58.319Z,0
2017-01-12T04:02:58.328Z,0
2017-01-12T04:03:58.324Z,0
2017-01-12T04:04:57.900Z,0
2017-01-12T04:05:58.309Z,0
2017-01-12T04:06:57.897Z,0
2017-01-12T04:07:57.905Z,0
2017-01-12T04:08:57.477Z,0
2017-01-12T04:09:57.889Z,0
2017-01-12T04:10:58.297Z,0
2017-01-12T04:11:57.886Z,0
2017-01-12T04:12:57.881Z,0
2017-01-12T04:13:57.881Z,0
2017-01-12T04:14:58.282Z,0
2017-01-12T04:15:58.285Z,0
2017-01-12T04:16:57.870Z,0
2017-01-12T04:17:57.450Z,0
2017-01-12T04:18:57.855Z,0
2017-01-12T04:19:57.874Z,0
2017-01-12T04:20:57.855Z,0
2017-01-12T04:21:58.262Z,0
2017-01-12T04:22:57.843Z,0
2017-01-12T04:23:57.842Z,0
2017-01-12T04:24:57.427Z,0
2017-01-12T04:25:57.835Z,0
2017-01-12T04:26:57.424Z,0
2017-01-12T04:27:57.415Z,0
2017-01-12T04:28:57.851Z,0
2017-01-12T04:29:57.416Z,0
2017-01-12T04:30:58.231Z,0
2017-01-12T04:31:57.820Z,0
2017-01-12T04:32:57.820Z,0
2017-01-12T04:33:57.816Z,0
2017-01-12T04:34:57.391Z,0
2017-01-12T04:35:57.396Z,0
2017-01-12T04:36:57.012Z,0
2017-01-12T04:37:57.804Z,0
2017-01-12T04:38:58.200Z,0
2017-01-12T04:39:57.792Z,0
2017-01-12T04:40:58.200Z,0
2017-01-12T04:41:56.964Z,0
2017-01-12T04:42:57.364Z,0
2017-01-12T04:43:57.772Z,0
2017-01-12T04:44:57.772Z,0
2017-01-12T04:45:58.188Z,0
2017-01-12T04:46:57.764Z,0
2017-01-12T04:47:57.756Z,0
2017-01-12T04:48:57.343Z,0
2017-01-12T04:49:57.756Z,0
2017-01-12T04:50:57.748Z,0
2017-01-12T04:51:57.340Z,0
2017-01-12T04:52:57.748Z,0
2017-01-12T04:53:57.748Z,0
2017-01-12T04:54:57.740Z,0
2017-01-12T04:55:57.756Z,0
2017-01-12T04:56:57.320Z,0
2017-01-12T04:57:58.132Z,0
2017-01-12T04:58:57.321Z,0
2017-01-12T04:59:57.716Z,0
2017-01-12T05:00:57.716Z,0
2017-01-12T05:01:57.292Z,0
2017-01-12T05:02:58.120Z,0
2017-01-12T05:03:57.308Z,0
2017-01-12T05:04:57.303Z,0
2017-01-12T05:05:58.112Z,0
2017-01-12T05:06:57.700Z,0
2017-01-12T05:07:57.284Z,0
2017-01-12T05:08:58.104Z,0
2017-01-12T05:09:57.684Z,0
2017-01-12T05:10:57.688Z,0
2017-01-12T05:11:57.265Z,0
2017-01-12T05:12:58.085Z,0
2017-01-12T05:13:58.093Z,0
2017-01-12T05:14:57.669Z,0
2017-01-12T05:15:57.253Z,0
2017-01-12T05:16:57.661Z,0
2017-01-12T05:17:57.657Z,0
2017-01-12T05:18:57.661Z,0
2017-01-12T05:19:58.073Z,0
2017-01-12T05:20:57.241Z,0
2017-01-12T05:21:57.649Z,0
2017-01-12T05:22:57.237Z,0
2017-01-12T05:23:57.637Z,0
2017-01-12T05:24:57.633Z,0
2017-01-12T05:25:57.645Z,0
2017-01-12T05:26:57.641Z,0
2017-01-12T05:27:58.038Z,0
2017-01-12T05:28:57.626Z,0
2017-01-12T05:29:57.221Z,0
2017-01-12T05:30:58.026Z,0
2017-01-12T05:31:58.023Z,0
2017-01-12T05:32:57.197Z,0
2017-01-12T05:33:57.610Z,0
2017-01-12T05:34:57.602Z,0
2017-01-12T05:35:57.606Z,0
2017-01-12T05:36:57.362Z,0
2017-01-12T05:37:58.006Z,0
2017-01-12T05:38:58.014Z,0
2017-01-12T05:39:57.986Z,0
2017-01-12T05:40:57.582Z,0
2017-01-12T05:41:57.986Z,0
2017-01-12T05:42:57.578Z,0
2017-01-12T05:43:57.166Z,0
2017-01-12T05:44:57.566Z,0
2017-01-12T05:45:57.570Z,0
2017-01-12T05:46:57.974Z,0
2017-01-12T05:47:57.558Z,0
2017-01-12T05:48:57.554Z,0
2017-01-12T05:49:57.555Z,0
2017-01-12T05:50:57.962Z,0
2017-01-12T05:51:57.950Z,0
2017-01-12T05:52:57.538Z,0
2017-01-12T05:53:57.950Z,0
2017-01-12T05:54:56.718Z,0
2017-01-12T05:55:57.530Z,0
2017-01-12T05:56:57.530Z,0
2017-01-12T05:57:57.934Z,0
2017-01-12T05:58:57.526Z,0
2017-01-12T05:59:57.518Z,0
2017-01-12T06:00:57.522Z,0
2017-01-12T06:01:57.106Z,0
2017-01-12T06:02:57.514Z,0
2017-01-12T06:03:57.914Z,0
2017-01-12T06:04:57.910Z,0
2017-01-12T06:05:57.914Z,0
2017-01-12T06:06:57.086Z,0
2017-01-12T06:07:57.078Z,0
2017-01-12T06:08:57.930Z,0
2017-01-12T06:09:57.484Z,0
2017-01-12T06:10:57.478Z,0
2017-01-12T06:11:57.475Z,0
2017-01-12T06:12:57.066Z,0
2017-01-12T06:13:56.647Z,0
2017-01-12T06:14:57.471Z,0
2017-01-12T06:15:57.459Z,0
2017-01-12T06:16:57.467Z,0
2017-01-12T06:17:57.863Z,0
2017-01-12T06:18:56.635Z,0
2017-01-12T06:19:56.635Z,0
2017-01-12T06:20:57.447Z,0
2017-01-12T06:21:57.851Z,0
2017-01-12T06:22:57.443Z,0
2017-01-12T06:23:57.027Z,0
2017-01-12T06:24:57.431Z,0
2017-01-12T06:25:57.431Z,0
2017-01-12T06:26:57.427Z,0
2017-01-12T06:27:57.415Z,0
2017-01-12T06:28:57.828Z,0
2017-01-12T06:29:57.416Z,0
2017-01-12T06:30:56.599Z,0
2017-01-12T06:31:57.808Z,0
2017-01-12T06:32:57.400Z,0
2017-01-12T06:33:57.400Z,0
2017-01-12T06:34:57.811Z,0
2017-01-12T06:35:56.991Z,0
2017-01-12T06:36:56.983Z,0
2017-01-12T06:37:56.992Z,0
2017-01-12T06:38:57.800Z,0
2017-01-12T06:39:57.383Z,0
2017-01-12T06:40:57.403Z,0
2017-01-12T06:41:56.967Z,0
2017-01-12T06:42:56.963Z,0
2017-01-12T06:43:57.371Z,4
2017-01-12T06:44:57.779Z,4
2017-01-12T06:45:57.799Z,4
2017-01-12T06:46:57.767Z,0
2017-01-12T06:47:56.962Z,0
2017-01-12T06:48:57.350Z,4
2017-01-12T06:49:57.354Z,4
2017-01-12T06:50:57.742Z,4
2017-01-12T06:51:57.346Z,8
2017-01-12T06:52:57.742Z,4
2017-01-12T06:53:57.326Z,8
2017-01-12T06:54:57.325Z,8
2017-01-12T06:55:57.322Z,12
2017-01-12T06:56:57.734Z,12
2017-01-12T06:57:57.725Z,12
2017-01-12T06:58:57.313Z,16
2017-01-12T06:59:56.901Z,20
2017-01-12T07:00:57.313Z,20
2017-01-12T07:01:57.717Z,24
2017-01-12T07:02:57.712Z,24
2017-01-12T07:03:57.709Z,28
2017-01-12T07:04:57.716Z,32
2017-01-12T07:05:56.880Z,32
2017-01-12T07:06:57.540Z,36
2017-01-12T07:07:57.276Z,40
2017-01-12T07:08:57.284Z,36
2017-01-12T07:09:57.272Z,32
2017-01-12T07:10:57.268Z,32
2017-01-12T07:11:57.268Z,36
2017-01-12T07:12:56.856Z,44
2017-01-12T07:13:56.859Z,52
2017-01-12T07:14:56.848Z,48
2017-01-12T07:15:56.888Z,52
2017-01-12T07:16:57.664Z,60
2017-01-12T07:17:57.256Z,64
2017-01-12T07:18:56.832Z,72
2017-01-12T07:19:57.644Z,76
2017-01-12T07:20:57.656Z,84
2017-01-12T07:21:57.649Z,88
2017-01-12T07:22:56.825Z,92
2017-01-12T07:23:56.817Z,100
2017-01-12T07:24:56.821Z,104
2017-01-12T07:25:57.229Z,108
2017-01-12T07:26:57.633Z,104
2017-01-12T07:27:57.213Z,108
2017-01-12T07:28:57.209Z,116
2017-01-12T07:29:57.625Z,128
2017-01-12T07:30:57.617Z,136
2017-01-12T07:31:56.393Z,140
2017-01-12T07:32:56.378Z,148
2017-01-12T07:33:57.614Z,152
2017-01-12T07:34:56.782Z,156
2017-01-12T07:35:57.186Z,152
2017-01-12T07:36:57.186Z,148
2017-01-12T07:37:56.362Z,172
2017-01-12T07:38:56.762Z,180
2017-01-12T07:39:57.177Z,172
2017-01-12T07:40:57.178Z,176
2017-01-12T07:41:57.578Z,164
2017-01-12T07:42:57.594Z,188
2017-01-12T07:43:56.742Z,192
2017-01-12T07:44:56.751Z,196
2017-01-12T07:45:56.339Z,208
2017-01-12T07:46:56.755Z,204
2017-01-12T07:47:57.150Z,208
2017-01-12T07:48:57.143Z,216
2017-01-12T07:49:57.555Z,216
2017-01-12T07:50:57.551Z,228
2017-01-12T07:51:57.140Z,232
2017-01-12T07:52:57.136Z,244
2017-01-12T07:53:57.136Z,256
2017-01-12T07:54:57.548Z,268
2017-01-12T07:55:57.152Z,280
2017-01-12T07:56:57.137Z,276
2017-01-12T07:57:57.545Z,288
2017-01-12T07:58:57.112Z,316
2017-01-12T07:59:57.524Z,344
2017-01-12T08:00:56.701Z,352
2017-01-12T08:01:56.685Z,360
2017-01-12T08:02:56.721Z,412
2017-01-12T08:03:57.509Z,452
2017-01-12T08:04:57.502Z,464
2017-01-12T08:05:56.681Z,476
2017-01-12T08:06:57.097Z,500
2017-01-12T08:07:56.678Z,532
2017-01-12T08:08:57.082Z,564
2017-01-12T08:09:56.669Z,548
2017-01-12T08:10:57.069Z,564
2017-01-12T08:11:57.490Z,588
2017-01-12T08:12:57.066Z,592
2017-01-12T08:13:57.070Z,584
2017-01-12T08:14:57.054Z,588
2017-01-12T08:15:57.082Z,588
2017-01-12T08:16:56.647Z,560
2017-01-12T08:17:57.050Z,540
2017-01-12T08:18:57.466Z,516
2017-01-12T08:19:57.046Z,508
2017-01-12T08:20:57.038Z,520
2017-01-12T08:21:57.042Z,552
2017-01-12T08:22:56.630Z,584
2017-01-12T08:23:57.034Z,604
2017-01-12T08:24:57.026Z,604
2017-01-12T08:25:57.438Z,592
2017-01-12T08:26:57.435Z,580
2017-01-12T08:27:57.019Z,572
2017-01-12T08:28:56.615Z,580
2017-01-12T08:29:57.423Z,604
2017-01-12T08:30:57.003Z,636
2017-01-12T08:31:57.003Z,672
2017-01-12T08:32:57.411Z,696
2017-01-12T08:33:56.995Z,700
2017-01-12T08:34:56.991Z,692
2017-01-12T08:35:56.995Z,680
2017-01-12T08:36:57.400Z,692
2017-01-12T08:37:56.987Z,712
2017-01-12T08:38:56.572Z,704
2017-01-12T08:39:56.568Z,648
2017-01-12T08:40:56.980Z,576
2017-01-12T08:41:56.600Z,536
2017-01-12T08:42:56.968Z,516
2017-01-12T08:43:56.564Z,508
2017-01-12T08:44:56.552Z,520
2017-01-12T08:45:56.959Z,552
2017-01-12T08:46:56.549Z,616
2017-01-12T08:47:56.961Z,672
2017-01-12T08:48:57.361Z,668
2017-01-12T08:49:56.949Z,644
2017-01-12T08:50:57.361Z,628
2017-01-12T08:51:56.541Z,628
2017-01-12T08:52:56.941Z,672
2017-01-12T08:53:56.526Z,732
2017-01-12T08:54:56.938Z,796
2017-01-12T08:55:57.338Z,840
2017-01-12T08:56:56.665Z,872
2017-01-12T08:57:56.114Z,900
2017-01-12T08:58:56.510Z,932
2017-01-12T08:59:57.334Z,956
2017-01-12T09:00:57.330Z,984
2017-01-12T09:01:56.502Z,1012
2017-01-12T09:02:56.910Z,1056
2017-01-12T09:03:56.910Z,1140
2017-01-12T09:04:56.900Z,1228
2017-01-12T09:05:57.314Z,1316
2017-01-12T09:06:57.307Z,1372
2017-01-12T09:07:57.303Z,1328
2017-01-12T09:08:56.475Z,1196
2017-01-12T09:09:56.891Z,1076
2017-01-12T09:10:56.887Z,1032
2017-01-12T09:11:56.872Z,1056
2017-01-12T09:12:56.883Z,1084
2017-01-12T09:13:57.287Z,1092
2017-01-12T09:14:56.460Z,1084
2017-01-12T09:15:56.048Z,1064
2017-01-12T09:16:56.452Z,1032
2017-01-12T09:17:57.368Z,1024
2017-01-12T09:18:56.876Z,1048
2017-01-12T09:19:56.852Z,1068
2017-01-12T09:20:56.852Z,1092
2017-01-12T09:21:56.036Z,1108
2017-01-12T09:22:57.252Z,1100
2017-01-12T09:23:56.432Z,1060
2017-01-12T09:24:56.836Z,1020
2017-01-12T09:25:56.449Z,996
2017-01-12T09:26:56.833Z,984
2017-01-12T09:27:56.821Z,976
2017-01-12T09:28:56.425Z,980
2017-01-12T09:29:56.828Z,996
2017-01-12T09:30:56.825Z,1048
2017-01-12T09:31:56.813Z,1100
2017-01-12T09:32:56.813Z,1196
2017-01-12T09:33:56.413Z,1328
2017-01-12T09:34:55.993Z,1468
2017-01-12T09:35:56.817Z,1620
2017-01-12T09:36:57.211Z,1764
2017-01-12T09:37:56.806Z,1800
2017-01-12T09:38:56.794Z,1764
2017-01-12T09:39:56.798Z,1752
2017-01-12T09:40:56.798Z,1760
2017-01-12T09:41:56.786Z,1684
2017-01-12T09:42:57.205Z,1624
2017-01-12T09:43:56.782Z,1700
2017-01-12T09:44:57.186Z,1916
2017-01-12T09:45:56.358Z,1936
2017-01-12T09:46:56.358Z,1784
2017-01-12T09:47:57.178Z,1720
2017-01-12T09:48:56.762Z,1704
2017-01-12T09:49:57.178Z,1652
2017-01-12T09:50:57.166Z,1716
2017-01-12T09:51:56.363Z,1844
2017-01-12T09:52:57.166Z,1844
2017-01-12T09:53:56.347Z,1780
2017-01-12T09:54:56.751Z,1892
2017-01-12T09:55:57.155Z,1740
2017-01-12T09:56:56.333Z,1908
2017-01-12T09:57:56.743Z,1820
2017-01-12T09:58:56.763Z,1688
2017-01-12T09:59:56.323Z,1520
2017-01-12T10:00:56.323Z,1780
2017-01-12T10:01:57.147Z,1652
2017-01-12T10:02:57.139Z,1680
2017-01-12T10:03:56.727Z,1584
2017-01-12T10:04:56.719Z,1512
2017-01-12T10:05:57.139Z,1724
2017-01-12T10:06:57.121Z,1772
2017-01-12T10:07:56.299Z,1684
2017-01-12T10:08:57.116Z,1620
2017-01-12T10:09:56.704Z,1604
2017-01-12T10:10:56.700Z,1824
2017-01-12T10:11:56.288Z,2104
2017-01-12T10:12:56.696Z,2128
2017-01-12T10:13:56.696Z,1960
2017-01-12T10:14:56.954Z,2344
2017-01-12T10:15:57.100Z,2344
2017-01-12T10:16:55.864Z,2080
2017-01-12T10:17:56.680Z,2284
2017-01-12T10:18:57.096Z,1944
2017-01-12T10:19:56.680Z,1784
2017-01-12T10:20:56.668Z,2112
2017-01-12T10:21:55.856Z,1816
2017-01-12T10:22:56.260Z,1880
2017-01-12T10:23:57.072Z,1864
2017-01-12T10:24:56.249Z,1900
2017-01-12T10:25:56.665Z,2000
2017-01-12T10:26:57.065Z,1892
2017-01-12T10:27:56.652Z,1844
2017-01-12T10:28:57.060Z,1896
2017-01-12T10:29:56.237Z,1796
2017-01-12T10:30:56.645Z,1520
2017-01-12T10:31:56.644Z,1384
2017-01-12T10:32:56.653Z,1476
2017-01-12T10:33:57.073Z,1400
2017-01-12T10:34:56.640Z,1416
2017-01-12T10:35:56.221Z,1432
2017-01-12T10:36:56.624Z,1472
2017-01-12T10:37:56.637Z,1464
2017-01-12T10:38:56.629Z,1504
2017-01-12T10:39:56.621Z,1572
2017-01-12T10:40:56.207Z,1556
2017-01-12T10:41:57.025Z,1452
2017-01-12T10:42:57.021Z,1468
2017-01-12T10:43:57.027Z,1576
2017-01-12T10:44:56.608Z,1872
2017-01-12T10:45:57.016Z,2052
2017-01-12T10:46:56.633Z,2044
2017-01-12T10:47:56.593Z,2124
2017-01-12T10:48:57.024Z,1980
2017-01-12T10:49:56.176Z,2032
2017-01-12T10:50:56.589Z,1972
2017-01-12T10:51:56.173Z,1812
2017-01-12T10:52:57.001Z,1636
2017-01-12T10:53:56.580Z,1648
2017-01-12T10:54:56.165Z,1548
2017-01-12T10:55:56.577Z,1704
2017-01-12T10:56:56.565Z,1768
2017-01-12T10:57:56.153Z,1920
2017-01-12T10:58:56.981Z,2032
2017-01-12T10:59:56.160Z,2036
2017-01-12T11:00:56.976Z,2012
2017-01-12T11:01:56.557Z,1976
2017-01-12T11:02:56.560Z,2124
2017-01-12T11:03:56.556Z,2264
2017-01-12T11:04:56.960Z,2124
2017-01-12T11:05:56.140Z,1828
2017-01-12T11:06:56.952Z,2156
2017-01-12T11:07:56.128Z,2324
2017-01-12T11:08:56.535Z,2380
2017-01-12T11:09:56.948Z,2412
2017-01-12T11:10:56.531Z,2388
2017-01-12T11:11:56.131Z,2252
2017-01-12T11:12:56.519Z,1772
2017-01-12T11:13:56.523Z,1668
2017-01-12T11:14:56.523Z,1740
2017-01-12T11:15:56.931Z,1656
2017-01-12T11:16:56.514Z,1488
2017-01-12T11:17:56.527Z,1344
2017-01-12T11:18:56.510Z,1444
2017-01-12T11:19:56.090Z,1468
2017-01-12T11:20:56.914Z,1612
2017-01-12T11:21:56.501Z,1748
2017-01-12T11:22:56.501Z,1808
2017-01-12T11:23:56.497Z,1960
2017-01-12T11:24:56.489Z,2116
2017-01-12T11:25:56.905Z,2204
2017-01-12T11:26:56.901Z,2376
2017-01-12T11:27:56.896Z,2412
2017-01-12T11:28:56.888Z,2276
2017-01-12T11:29:56.480Z,2276
2017-01-12T11:30:56.068Z,2364
2017-01-12T11:31:55.652Z,2396
2017-01-12T11:32:56.476Z,2444
2017-01-12T11:33:56.467Z,2408
2017-01-12T11:34:56.880Z,2408
2017-01-12T11:35:56.056Z,2364
2017-01-12T11:36:56.870Z,2288
2017-01-12T11:37:56.451Z,2228
2017-01-12T11:38:56.871Z,2232
2017-01-12T11:39:56.863Z,2168
2017-01-12T11:40:56.043Z,2220
2017-01-12T11:41:56.447Z,2260
2017-01-12T11:42:56.854Z,2336
2017-01-12T11:43:56.447Z,2348
2017-01-12T11:44:56.434Z,2352
2017-01-12T11:45:56.440Z,2344
2017-01-12T11:46:56.423Z,2328
2017-01-12T11:47:56.026Z,2312
2017-01-12T11:48:56.422Z,2180
2017-01-12T11:49:56.838Z,2068
2017-01-12T11:50:56.418Z,1916
2017-01-12T11:51:56.418Z,1876
2017-01-12T11:52:56.830Z,2004
2017-01-12T11:53:56.417Z,2040
2017-01-12T11:54:56.413Z,2060
2017-01-12T11:55:56.411Z,2092
2017-01-12T11:56:56.820Z,2116
2017-01-12T11:57:56.400Z,2164
2017-01-12T11:58:56.404Z,2180
2017-01-12T11:59:56.400Z,2152
2017-01-12T12:00:56.395Z,2044
2017-01-12T12:01:56.803Z,1848
2017-01-12T12:02:56.395Z,1696
2017-01-12T12:03:56.383Z,1552
2017-01-12T12:04:55.566Z,1316
2017-01-12T12:05:56.378Z,1224
2017-01-12T12:06:55.958Z,1000
2017-01-12T12:07:55.966Z,996
2017-01-12T12:08:56.370Z,1088
2017-01-12T12:09:56.361Z,1240
2017-01-12T12:10:56.369Z,1424
2017-01-12T12:11:56.773Z,1636
2017-01-12T12:12:55.939Z,1832
2017-01-12T12:13:56.375Z,1740
2017-01-12T12:14:56.353Z,1644
2017-01-12T12:15:55.525Z,1600
2017-01-12T12:16:55.937Z,1644
2017-01-12T12:17:56.761Z,1552
2017-01-12T12:18:56.353Z,1692
2017-01-12T12:19:56.345Z,1732
2017-01-12T12:20:56.337Z,1772
2017-01-12T12:21:56.752Z,1788
2017-01-12T12:22:56.329Z,1832
2017-01-12T12:23:56.333Z,1840
2017-01-12T12:24:56.332Z,1800
2017-01-12T12:25:56.336Z,1764
2017-01-12T12:26:56.748Z,1688
2017-01-12T12:27:55.508Z,1612
2017-01-12T12:28:56.320Z,1548
2017-01-12T12:29:56.728Z,1604
2017-01-12T12:30:56.317Z,1512
2017-01-12T12:31:56.312Z,1560
2017-01-12T12:32:56.306Z,1464
2017-01-12T12:33:56.725Z,1364
2017-01-12T12:34:56.297Z,1332
2017-01-12T12:35:56.329Z,1316
2017-01-12T12:36:56.305Z,1376
2017-01-12T12:37:56.717Z,1484
2017-01-12T12:38:56.713Z,1648
2017-01-12T12:39:55.881Z,1744
2017-01-12T12:40:56.286Z,1732
2017-01-12T12:41:56.706Z,1804
2017-01-12T12:42:56.285Z,1872
2017-01-12T12:43:56.282Z,1820
2017-01-12T12:44:56.290Z,1596
2017-01-12T12:45:56.694Z,1568
2017-01-12T12:46:56.682Z,1484
2017-01-12T12:47:56.682Z,1488
2017-01-12T12:48:56.278Z,1404
2017-01-12T12:49:55.850Z,1456
2017-01-12T12:50:55.846Z,1360
2017-01-12T12:51:56.258Z,1176
2017-01-12T12:52:56.266Z,1076
2017-01-12T12:53:56.670Z,956
2017-01-12T12:54:56.254Z,1008
2017-01-12T12:55:56.261Z,1036
2017-01-12T12:56:56.667Z,1080
2017-01-12T12:57:56.662Z,988
2017-01-12T12:58:56.250Z,1012
2017-01-12T12:59:56.251Z,1012
2017-01-12T13:00:56.246Z,996
2017-01-12T13:01:56.231Z,1052
2017-01-12T13:02:56.234Z,1164
2017-01-12T13:03:56.235Z,1212
2017-01-12T13:04:56.642Z,1184
2017-01-12T13:05:56.234Z,1080
2017-01-12T13:06:56.639Z,1300
2017-01-12T13:07:56.635Z,1360
2017-01-12T13:08:56.639Z,1176
2017-01-12T13:09:55.811Z,976
2017-01-12T13:10:56.220Z,980
2017-01-12T13:11:56.632Z,1008
2017-01-12T13:12:56.208Z,1044
2017-01-12T13:13:56.628Z,988
2017-01-12T13:14:56.236Z,1204
2017-01-12T13:15:55.385Z,1208
2017-01-12T13:16:56.213Z,1120
2017-01-12T13:17:56.209Z,968
2017-01-12T13:18:56.193Z,916
2017-01-12T13:19:56.189Z,944
2017-01-12T13:20:56.198Z,960
2017-01-12T13:21:56.194Z,884
2017-01-12T13:22:56.602Z,860
2017-01-12T13:23:56.598Z,812
2017-01-12T13:24:56.174Z,772
2017-01-12T13:25:55.773Z,764
2017-01-12T13:26:56.184Z,808
2017-01-12T13:27:55.762Z,776
2017-01-12T13:28:56.174Z,748
2017-01-12T13:29:56.590Z,764
2017-01-12T13:30:55.758Z,732
2017-01-12T13:31:56.582Z,744
2017-01-12T13:32:55.772Z,756
2017-01-12T13:33:56.571Z,756
2017-01-12T13:34:56.154Z,736
2017-01-12T13:35:56.570Z,732
2017-01-12T13:36:56.566Z,748
2017-01-12T13:37:56.151Z,804
2017-01-12T13:38:56.554Z,780
2017-01-12T13:39:56.147Z,804
2017-01-12T13:40:55.731Z,776
2017-01-12T13:41:56.143Z,800
2017-01-12T13:42:55.731Z,780
2017-01-12T13:43:55.727Z,776
2017-01-12T13:44:55.719Z,844
2017-01-12T13:45:56.127Z,908
2017-01-12T13:46:56.535Z,928
2017-01-12T13:47:56.275Z,904
2017-01-12T13:48:56.535Z,856
2017-01-12T13:49:56.555Z,808
2017-01-12T13:50:56.127Z,768
2017-01-12T13:51:56.111Z,780
2017-01-12T13:52:56.125Z,768
2017-01-12T13:53:56.543Z,788
2017-01-12T13:54:56.107Z,840
2017-01-12T13:55:56.515Z,884
2017-01-12T13:56:56.508Z,892
2017-01-12T13:57:55.692Z,868
2017-01-12T13:58:56.096Z,820
2017-01-12T13:59:55.272Z,764
2017-01-12T14:00:55.687Z,720
2017-01-12T14:01:56.496Z,676
2017-01-12T14:02:55.260Z,636
2017-01-12T14:03:55.675Z,584
2017-01-12T14:04:56.080Z,552
2017-01-12T14:05:55.668Z,536
2017-01-12T14:06:56.076Z,544
2017-01-12T14:07:55.244Z,556